sensor_id;sensor_type;location;lat;lon;timestamp;P1;durP1;ratioP1;P2;durP2;ratioP2
5981;SDS011;3018;48.730;9.336;2022-12-10T00:01:49;46.05;;;26.20;;
5981;SDS011;3018;48.730;9.336;2022-12-10T00:04:16;43.70;;;26.85;;
5981;SDS011;3018;48.730;9.336;2022-12-10T00:06:43;43.90;;;27.50;;
5981;SDS011;3018;48.730;9.336;2022-12-10T00:09:10;39.95;;;25.20;;
5981;SDS011;3018;48.730;9.336;2022-12-10T00:11:36;39.72;;;24.92;;
5981;SDS011;3018;48.730;9.336;2022-12-10T00:14:04;43.45;;;26.30;;
5981;SDS011;3018;48.730;9.336;2022-12-10T00:16:32;43.35;;;25.70;;
5981;SDS011;3018;48.730;9.336;2022-12-10T00:18:58;42.63;;;25.58;;
5981;SDS011;3018;48.730;9.336;2022-12-10T00:21:25;41.10;;;25.15;;
5981;SDS011;3018;48.730;9.336;2022-12-10T00:23:52;41.75;;;26.17;;
5981;SDS011;3018;48.730;9.336;2022-12-10T00:26:19;38.78;;;24.02;;
5981;SDS011;3018;48.730;9.336;2022-12-10T00:28:45;41.70;;;25.23;;
5981;SDS011;3018;48.730;9.336;2022-12-10T00:31:14;42.55;;;25.75;;
5981;SDS011;3018;48.730;9.336;2022-12-10T00:33:41;45.15;;;26.42;;
5981;SDS011;3018;48.730;9.336;2022-12-10T00:36:08;42.40;;;24.83;;
5981;SDS011;3018;48.730;9.336;2022-12-10T00:38:35;35.83;;;23.65;;
5981;SDS011;3018;48.730;9.336;2022-12-10T00:41:02;42.50;;;24.48;;
5981;SDS011;3018;48.730;9.336;2022-12-10T00:43:29;40.33;;;25.42;;
5981;SDS011;3018;48.730;9.336;2022-12-10T00:45:55;39.65;;;24.33;;
5981;SDS011;3018;48.730;9.336;2022-12-10T00:48:23;41.60;;;25.48;;
5981;SDS011;3018;48.730;9.336;2022-12-10T00:50:56;44.42;;;25.88;;
5981;SDS011;3018;48.730;9.336;2022-12-10T00:53:23;41.97;;;24.42;;
5981;SDS011;3018;48.730;9.336;2022-12-10T00:55:50;37.80;;;23.67;;
5981;SDS011;3018;48.730;9.336;2022-12-10T00:58:16;40.58;;;25.15;;
5981;SDS011;3018;48.730;9.336;2022-12-10T01:00:42;42.28;;;25.00;;
5981;SDS011;3018;48.730;9.336;2022-12-10T01:03:09;36.50;;;24.30;;
5981;SDS011;3018;48.730;9.336;2022-12-10T01:05:36;36.35;;;22.20;;
5981;SDS011;3018;48.730;9.336;2022-12-10T01:08:03;37.08;;;23.63;;
5981;SDS011;3018;48.730;9.336;2022-12-10T01:10:29;35.78;;;23.42;;
5981;SDS011;3018;48.730;9.336;2022-12-10T01:12:55;38.25;;;23.55;;
5981;SDS011;3018;48.730;9.336;2022-12-10T01:15:22;38.88;;;23.95;;
5981;SDS011;3018;48.730;9.336;2022-12-10T01:17:48;35.15;;;23.08;;
5981;SDS011;3018;48.730;9.336;2022-12-10T01:20:14;35.47;;;22.65;;
5981;SDS011;3018;48.730;9.336;2022-12-10T01:22:42;37.58;;;23.23;;
5981;SDS011;3018;48.730;9.336;2022-12-10T01:25:08;36.85;;;23.85;;
5981;SDS011;3018;48.730;9.336;2022-12-10T01:27:34;40.92;;;24.30;;
5981;SDS011;3018;48.730;9.336;2022-12-10T01:30:01;36.88;;;23.48;;
5981;SDS011;3018;48.730;9.336;2022-12-10T01:32:27;38.13;;;24.10;;
5981;SDS011;3018;48.730;9.336;2022-12-10T01:34:53;36.20;;;23.65;;
5981;SDS011;3018;48.730;9.336;2022-12-10T01:37:20;40.75;;;23.90;;
5981;SDS011;3018;48.730;9.336;2022-12-10T01:39:47;38.60;;;24.83;;
5981;SDS011;3018;48.730;9.336;2022-12-10T01:42:14;38.05;;;23.65;;
5981;SDS011;3018;48.730;9.336;2022-12-10T01:45:00;38.65;;;23.95;;
5981;SDS011;3018;48.730;9.336;2022-12-10T01:47:26;39.08;;;23.95;;
5981;SDS011;3018;48.730;9.336;2022-12-10T01:49:53;35.95;;;22.83;;
5981;SDS011;3018;48.730;9.336;2022-12-10T01:52:19;36.70;;;23.10;;
5981;SDS011;3018;48.730;9.336;2022-12-10T01:54:45;36.47;;;22.13;;
5981;SDS011;3018;48.730;9.336;2022-12-10T01:57:14;32.13;;;22.05;;
5981;SDS011;3018;48.730;9.336;2022-12-10T01:59:41;39.15;;;22.42;;
5981;SDS011;3018;48.730;9.336;2022-12-10T02:02:09;33.40;;;21.80;;
5981;SDS011;3018;48.730;9.336;2022-12-10T02:04:39;34.13;;;22.27;;
5981;SDS011;3018;48.730;9.336;2022-12-10T02:07:09;35.90;;;22.83;;
5981;SDS011;3018;48.730;9.336;2022-12-10T02:09:38;35.08;;;22.40;;
5981;SDS011;3018;48.730;9.336;2022-12-10T02:12:10;36.42;;;23.48;;
5981;SDS011;3018;48.730;9.336;2022-12-10T02:14:41;34.78;;;22.45;;
5981;SDS011;3018;48.730;9.336;2022-12-10T02:17:12;36.47;;;22.92;;
5981;SDS011;3018;48.730;9.336;2022-12-10T02:19:44;35.42;;;22.27;;
5981;SDS011;3018;48.730;9.336;2022-12-10T02:22:12;36.42;;;21.80;;
5981;SDS011;3018;48.730;9.336;2022-12-10T02:24:40;37.45;;;22.67;;
5981;SDS011;3018;48.730;9.336;2022-12-10T02:27:08;35.55;;;22.50;;
5981;SDS011;3018;48.730;9.336;2022-12-10T02:29:38;37.15;;;22.35;;
5981;SDS011;3018;48.730;9.336;2022-12-10T02:32:05;34.42;;;22.63;;
5981;SDS011;3018;48.730;9.336;2022-12-10T02:34:33;34.33;;;21.80;;
5981;SDS011;3018;48.730;9.336;2022-12-10T02:37:03;34.53;;;22.15;;
5981;SDS011;3018;48.730;9.336;2022-12-10T02:39:33;30.50;;;20.95;;
5981;SDS011;3018;48.730;9.336;2022-12-10T02:42:01;38.40;;;22.80;;
5981;SDS011;3018;48.730;9.336;2022-12-10T02:44:29;33.80;;;20.95;;
5981;SDS011;3018;48.730;9.336;2022-12-10T02:46:58;35.53;;;22.52;;
5981;SDS011;3018;48.730;9.336;2022-12-10T02:49:25;32.70;;;21.33;;
5981;SDS011;3018;48.730;9.336;2022-12-10T02:51:52;34.00;;;21.55;;
5981;SDS011;3018;48.730;9.336;2022-12-10T02:54:35;32.92;;;20.85;;
5981;SDS011;3018;48.730;9.336;2022-12-10T02:57:03;34.22;;;21.77;;
5981;SDS011;3018;48.730;9.336;2022-12-10T02:59:33;31.83;;;21.35;;
5981;SDS011;3018;48.730;9.336;2022-12-10T03:02:05;31.58;;;21.35;;
5981;SDS011;3018;48.730;9.336;2022-12-10T03:04:33;32.90;;;21.42;;
5981;SDS011;3018;48.730;9.336;2022-12-10T03:07:05;32.20;;;21.35;;
5981;SDS011;3018;48.730;9.336;2022-12-10T03:09:34;32.42;;;20.05;;
5981;SDS011;3018;48.730;9.336;2022-12-10T03:12:02;30.77;;;21.00;;
5981;SDS011;3018;48.730;9.336;2022-12-10T03:14:32;31.40;;;21.00;;
5981;SDS011;3018;48.730;9.336;2022-12-10T03:16:59;28.30;;;19.35;;
5981;SDS011;3018;48.730;9.336;2022-12-10T03:19:28;29.67;;;19.95;;
5981;SDS011;3018;48.730;9.336;2022-12-10T03:21:57;30.15;;;20.05;;
5981;SDS011;3018;48.730;9.336;2022-12-10T03:24:24;30.17;;;20.17;;
5981;SDS011;3018;48.730;9.336;2022-12-10T03:26:52;32.88;;;20.17;;
5981;SDS011;3018;48.730;9.336;2022-12-10T03:29:19;30.50;;;19.92;;
5981;SDS011;3018;48.730;9.336;2022-12-10T03:31:47;30.48;;;20.20;;
5981;SDS011;3018;48.730;9.336;2022-12-10T03:34:13;32.20;;;20.73;;
5981;SDS011;3018;48.730;9.336;2022-12-10T03:36:41;33.60;;;20.65;;
5981;SDS011;3018;48.730;9.336;2022-12-10T03:39:08;29.83;;;20.00;;
5981;SDS011;3018;48.730;9.336;2022-12-10T03:41:35;32.10;;;20.10;;
5981;SDS011;3018;48.730;9.336;2022-12-10T03:44:01;32.35;;;21.60;;
5981;SDS011;3018;48.730;9.336;2022-12-10T03:46:28;31.40;;;20.25;;
5981;SDS011;3018;48.730;9.336;2022-12-10T03:48:55;27.95;;;18.95;;
5981;SDS011;3018;48.730;9.336;2022-12-10T03:51:21;29.17;;;19.77;;
5981;SDS011;3018;48.730;9.336;2022-12-10T03:53:49;31.08;;;20.35;;
5981;SDS011;3018;48.730;9.336;2022-12-10T03:56:15;24.90;;;18.55;;
5981;SDS011;3018;48.730;9.336;2022-12-10T03:58:42;30.95;;;20.40;;
5981;SDS011;3018;48.730;9.336;2022-12-10T04:01:08;34.70;;;22.05;;
5981;SDS011;3018;48.730;9.336;2022-12-10T04:03:35;36.97;;;23.45;;
5981;SDS011;3018;48.730;9.336;2022-12-10T04:06:02;33.72;;;22.48;;
5981;SDS011;3018;48.730;9.336;2022-12-10T04:08:28;34.58;;;23.35;;
5981;SDS011;3018;48.730;9.336;2022-12-10T04:11:00;34.20;;;22.35;;
5981;SDS011;3018;48.730;9.336;2022-12-10T04:13:27;32.15;;;21.98;;
5981;SDS011;3018;48.730;9.336;2022-12-10T04:16:11;33.13;;;21.05;;
5981;SDS011;3018;48.730;9.336;2022-12-10T04:18:52;29.63;;;20.50;;
5981;SDS011;3018;48.730;9.336;2022-12-10T04:21:19;32.13;;;20.77;;
5981;SDS011;3018;48.730;9.336;2022-12-10T04:24:03;36.75;;;22.80;;
5981;SDS011;3018;48.730;9.336;2022-12-10T04:26:48;30.38;;;19.83;;
5981;SDS011;3018;48.730;9.336;2022-12-10T04:29:21;28.30;;;19.77;;
5981;SDS011;3018;48.730;9.336;2022-12-10T04:31:47;31.48;;;20.25;;
5981;SDS011;3018;48.730;9.336;2022-12-10T04:34:14;28.13;;;20.10;;
5981;SDS011;3018;48.730;9.336;2022-12-10T04:36:40;28.23;;;18.85;;
5981;SDS011;3018;48.730;9.336;2022-12-10T04:39:06;34.45;;;21.48;;
5981;SDS011;3018;48.730;9.336;2022-12-10T04:41:32;32.00;;;20.73;;
5981;SDS011;3018;48.730;9.336;2022-12-10T04:44:00;29.90;;;19.45;;
5981;SDS011;3018;48.730;9.336;2022-12-10T04:46:27;29.88;;;20.13;;
5981;SDS011;3018;48.730;9.336;2022-12-10T04:48:53;31.10;;;20.83;;
5981;SDS011;3018;48.730;9.336;2022-12-10T04:51:20;29.33;;;20.15;;
5981;SDS011;3018;48.730;9.336;2022-12-10T04:53:46;30.67;;;19.83;;
5981;SDS011;3018;48.730;9.336;2022-12-10T04:56:13;32.35;;;20.58;;
5981;SDS011;3018;48.730;9.336;2022-12-10T04:58:39;33.97;;;20.95;;
5981;SDS011;3018;48.730;9.336;2022-12-10T05:01:07;29.45;;;20.00;;
5981;SDS011;3018;48.730;9.336;2022-12-10T05:03:34;33.50;;;20.92;;
5981;SDS011;3018;48.730;9.336;2022-12-10T05:06:01;29.88;;;20.02;;
5981;SDS011;3018;48.730;9.336;2022-12-10T05:08:28;32.38;;;20.48;;
5981;SDS011;3018;48.730;9.336;2022-12-10T05:10:54;29.40;;;19.73;;
5981;SDS011;3018;48.730;9.336;2022-12-10T05:13:20;31.92;;;20.50;;
5981;SDS011;3018;48.730;9.336;2022-12-10T05:15:47;33.78;;;21.00;;
5981;SDS011;3018;48.730;9.336;2022-12-10T05:18:14;28.13;;;20.95;;
5981;SDS011;3018;48.730;9.336;2022-12-10T05:20:40;33.15;;;20.80;;
5981;SDS011;3018;48.730;9.336;2022-12-10T05:23:07;29.70;;;19.50;;
5981;SDS011;3018;48.730;9.336;2022-12-10T05:25:57;32.47;;;20.45;;
5981;SDS011;3018;48.730;9.336;2022-12-10T05:28:23;28.45;;;20.00;;
5981;SDS011;3018;48.730;9.336;2022-12-10T05:30:49;32.63;;;20.75;;
5981;SDS011;3018;48.730;9.336;2022-12-10T05:33:17;30.73;;;20.13;;
5981;SDS011;3018;48.730;9.336;2022-12-10T05:35:43;29.77;;;20.40;;
5981;SDS011;3018;48.730;9.336;2022-12-10T05:38:16;33.25;;;20.63;;
5981;SDS011;3018;48.730;9.336;2022-12-10T05:40:43;29.73;;;20.80;;
5981;SDS011;3018;48.730;9.336;2022-12-10T05:43:09;28.77;;;20.20;;
5981;SDS011;3018;48.730;9.336;2022-12-10T05:45:35;27.63;;;18.98;;
5981;SDS011;3018;48.730;9.336;2022-12-10T05:48:01;28.67;;;19.40;;
5981;SDS011;3018;48.730;9.336;2022-12-10T05:50:30;30.42;;;20.10;;
5981;SDS011;3018;48.730;9.336;2022-12-10T05:52:56;30.98;;;21.02;;
5981;SDS011;3018;48.730;9.336;2022-12-10T05:55:23;32.45;;;21.05;;
5981;SDS011;3018;48.730;9.336;2022-12-10T05:57:49;29.20;;;20.48;;
5981;SDS011;3018;48.730;9.336;2022-12-10T06:00:16;32.90;;;21.45;;
5981;SDS011;3018;48.730;9.336;2022-12-10T06:02:42;34.30;;;21.48;;
5981;SDS011;3018;48.730;9.336;2022-12-10T06:05:08;33.22;;;21.45;;
5981;SDS011;3018;48.730;9.336;2022-12-10T06:07:36;29.42;;;20.45;;
5981;SDS011;3018;48.730;9.336;2022-12-10T06:10:03;31.30;;;20.30;;
5981;SDS011;3018;48.730;9.336;2022-12-10T06:12:29;29.83;;;21.55;;
5981;SDS011;3018;48.730;9.336;2022-12-10T06:14:56;31.08;;;21.20;;
5981;SDS011;3018;48.730;9.336;2022-12-10T06:17:22;29.38;;;20.55;;
5981;SDS011;3018;48.730;9.336;2022-12-10T06:19:48;31.05;;;20.77;;
5981;SDS011;3018;48.730;9.336;2022-12-10T06:22:15;33.65;;;20.98;;
5981;SDS011;3018;48.730;9.336;2022-12-10T06:24:42;30.75;;;21.15;;
5981;SDS011;3018;48.730;9.336;2022-12-10T06:27:08;29.95;;;20.58;;
5981;SDS011;3018;48.730;9.336;2022-12-10T06:29:35;30.55;;;21.10;;
5981;SDS011;3018;48.730;9.336;2022-12-10T06:32:01;35.58;;;21.40;;
5981;SDS011;3018;48.730;9.336;2022-12-10T06:34:28;30.35;;;21.15;;
5981;SDS011;3018;48.730;9.336;2022-12-10T06:36:54;32.55;;;21.83;;
5981;SDS011;3018;48.730;9.336;2022-12-10T06:39:20;29.23;;;20.45;;
5981;SDS011;3018;48.730;9.336;2022-12-10T06:41:48;32.78;;;21.17;;
5981;SDS011;3018;48.730;9.336;2022-12-10T06:44:14;29.15;;;20.73;;
5981;SDS011;3018;48.730;9.336;2022-12-10T06:46:40;33.10;;;22.02;;
5981;SDS011;3018;48.730;9.336;2022-12-10T06:49:07;36.85;;;23.10;;
5981;SDS011;3018;48.730;9.336;2022-12-10T06:51:33;31.45;;;21.30;;
5981;SDS011;3018;48.730;9.336;2022-12-10T06:54:00;30.02;;;21.83;;
5981;SDS011;3018;48.730;9.336;2022-12-10T06:56:26;28.92;;;21.30;;
5981;SDS011;3018;48.730;9.336;2022-12-10T06:58:54;31.38;;;22.08;;
5981;SDS011;3018;48.730;9.336;2022-12-10T07:01:21;30.85;;;21.98;;
5981;SDS011;3018;48.730;9.336;2022-12-10T07:03:47;29.08;;;21.25;;
5981;SDS011;3018;48.730;9.336;2022-12-10T07:06:14;32.50;;;22.42;;
5981;SDS011;3018;48.730;9.336;2022-12-10T07:08:40;33.65;;;22.88;;
5981;SDS011;3018;48.730;9.336;2022-12-10T07:11:07;33.28;;;23.50;;
5981;SDS011;3018;48.730;9.336;2022-12-10T07:13:34;36.20;;;22.90;;
5981;SDS011;3018;48.730;9.336;2022-12-10T07:16:02;34.13;;;23.13;;
5981;SDS011;3018;48.730;9.336;2022-12-10T07:18:28;33.88;;;22.40;;
5981;SDS011;3018;48.730;9.336;2022-12-10T07:20:55;29.77;;;20.67;;
5981;SDS011;3018;48.730;9.336;2022-12-10T07:23:21;27.73;;;19.83;;
5981;SDS011;3018;48.730;9.336;2022-12-10T07:25:47;39.90;;;21.60;;
5981;SDS011;3018;48.730;9.336;2022-12-10T07:28:14;29.25;;;21.05;;
5981;SDS011;3018;48.730;9.336;2022-12-10T07:30:40;29.75;;;20.92;;
5981;SDS011;3018;48.730;9.336;2022-12-10T07:33:08;31.20;;;21.23;;
5981;SDS011;3018;48.730;9.336;2022-12-10T07:35:34;28.75;;;19.58;;
5981;SDS011;3018;48.730;9.336;2022-12-10T07:38:00;26.23;;;19.42;;
5981;SDS011;3018;48.730;9.336;2022-12-10T07:40:26;31.30;;;21.08;;
5981;SDS011;3018;48.730;9.336;2022-12-10T07:42:53;31.90;;;20.83;;
5981;SDS011;3018;48.730;9.336;2022-12-10T07:45:19;27.73;;;19.30;;
5981;SDS011;3018;48.730;9.336;2022-12-10T07:47:45;31.35;;;20.55;;
5981;SDS011;3018;48.730;9.336;2022-12-10T07:50:13;32.22;;;20.65;;
5981;SDS011;3018;48.730;9.336;2022-12-10T07:52:39;29.88;;;20.73;;
5981;SDS011;3018;48.730;9.336;2022-12-10T07:55:06;27.13;;;19.27;;
5981;SDS011;3018;48.730;9.336;2022-12-10T07:57:32;28.70;;;20.23;;
5981;SDS011;3018;48.730;9.336;2022-12-10T07:59:59;30.73;;;21.02;;
5981;SDS011;3018;48.730;9.336;2022-12-10T08:02:25;32.20;;;20.98;;
5981;SDS011;3018;48.730;9.336;2022-12-10T08:04:51;31.00;;;20.50;;
5981;SDS011;3018;48.730;9.336;2022-12-10T08:07:19;32.10;;;21.58;;
5981;SDS011;3018;48.730;9.336;2022-12-10T08:09:45;29.80;;;20.48;;
5981;SDS011;3018;48.730;9.336;2022-12-10T08:12:12;30.45;;;21.50;;
5981;SDS011;3018;48.730;9.336;2022-12-10T08:14:38;29.70;;;20.30;;
5981;SDS011;3018;48.730;9.336;2022-12-10T08:17:04;31.13;;;21.38;;
5981;SDS011;3018;48.730;9.336;2022-12-10T08:19:31;30.95;;;21.10;;
5981;SDS011;3018;48.730;9.336;2022-12-10T08:21:57;30.10;;;20.48;;
5981;SDS011;3018;48.730;9.336;2022-12-10T08:24:25;33.65;;;21.02;;
5981;SDS011;3018;48.730;9.336;2022-12-10T08:26:51;28.95;;;20.75;;
5981;SDS011;3018;48.730;9.336;2022-12-10T08:29:17;28.02;;;20.10;;
5981;SDS011;3018;48.730;9.336;2022-12-10T08:31:44;29.00;;;19.30;;
5981;SDS011;3018;48.730;9.336;2022-12-10T08:34:11;29.70;;;19.23;;
5981;SDS011;3018;48.730;9.336;2022-12-10T08:36:37;30.58;;;21.23;;
5981;SDS011;3018;48.730;9.336;2022-12-10T08:39:04;27.77;;;19.85;;
5981;SDS011;3018;48.730;9.336;2022-12-10T08:41:31;28.73;;;20.20;;
5981;SDS011;3018;48.730;9.336;2022-12-10T08:43:58;27.67;;;19.48;;
5981;SDS011;3018;48.730;9.336;2022-12-10T08:46:24;31.55;;;19.88;;
5981;SDS011;3018;48.730;9.336;2022-12-10T08:48:51;27.42;;;19.88;;
5981;SDS011;3018;48.730;9.336;2022-12-10T08:51:18;26.55;;;19.50;;
5981;SDS011;3018;48.730;9.336;2022-12-10T08:53:44;31.92;;;20.83;;
5981;SDS011;3018;48.730;9.336;2022-12-10T08:56:11;30.73;;;20.85;;
5981;SDS011;3018;48.730;9.336;2022-12-10T08:58:39;30.05;;;21.00;;
5981;SDS011;3018;48.730;9.336;2022-12-10T09:01:06;29.52;;;20.30;;
5981;SDS011;3018;48.730;9.336;2022-12-10T09:03:33;27.25;;;21.08;;
5981;SDS011;3018;48.730;9.336;2022-12-10T09:06:01;28.00;;;20.92;;
5981;SDS011;3018;48.730;9.336;2022-12-10T09:08:27;30.15;;;20.67;;
5981;SDS011;3018;48.730;9.336;2022-12-10T09:10:53;28.42;;;20.83;;
5981;SDS011;3018;48.730;9.336;2022-12-10T09:13:20;31.90;;;22.02;;
5981;SDS011;3018;48.730;9.336;2022-12-10T09:15:51;28.08;;;20.35;;
5981;SDS011;3018;48.730;9.336;2022-12-10T09:18:18;30.27;;;21.58;;
5981;SDS011;3018;48.730;9.336;2022-12-10T09:20:44;30.00;;;20.15;;
5981;SDS011;3018;48.730;9.336;2022-12-10T09:23:11;30.33;;;21.08;;
5981;SDS011;3018;48.730;9.336;2022-12-10T09:25:37;28.83;;;20.38;;
5981;SDS011;3018;48.730;9.336;2022-12-10T09:28:03;35.53;;;21.55;;
5981;SDS011;3018;48.730;9.336;2022-12-10T09:30:30;30.95;;;20.88;;
5981;SDS011;3018;48.730;9.336;2022-12-10T09:32:57;30.25;;;21.50;;
5981;SDS011;3018;48.730;9.336;2022-12-10T09:35:24;30.25;;;21.02;;
5981;SDS011;3018;48.730;9.336;2022-12-10T09:37:50;29.92;;;20.45;;
5981;SDS011;3018;48.730;9.336;2022-12-10T09:40:16;30.13;;;21.05;;
5981;SDS011;3018;48.730;9.336;2022-12-10T09:42:45;28.08;;;20.08;;
5981;SDS011;3018;48.730;9.336;2022-12-10T09:45:15;28.77;;;20.40;;
5981;SDS011;3018;48.730;9.336;2022-12-10T09:47:44;27.92;;;20.33;;
5981;SDS011;3018;48.730;9.336;2022-12-10T09:50:16;26.90;;;19.42;;
5981;SDS011;3018;48.730;9.336;2022-12-10T09:52:43;29.50;;;20.58;;
5981;SDS011;3018;48.730;9.336;2022-12-10T09:55:13;26.30;;;18.70;;
5981;SDS011;3018;48.730;9.336;2022-12-10T09:57:41;26.33;;;19.00;;
5981;SDS011;3018;48.730;9.336;2022-12-10T10:00:15;25.20;;;18.65;;
5981;SDS011;3018;48.730;9.336;2022-12-10T10:02:44;29.52;;;19.70;;
5981;SDS011;3018;48.730;9.336;2022-12-10T10:05:13;25.67;;;18.83;;
5981;SDS011;3018;48.730;9.336;2022-12-10T10:07:42;27.63;;;19.25;;
5981;SDS011;3018;48.730;9.336;2022-12-10T10:10:18;27.23;;;18.90;;
5981;SDS011;3018;48.730;9.336;2022-12-10T10:12:45;25.65;;;19.67;;
5981;SDS011;3018;48.730;9.336;2022-12-10T10:15:13;27.70;;;19.90;;
5981;SDS011;3018;48.730;9.336;2022-12-10T10:17:40;28.58;;;19.08;;
5981;SDS011;3018;48.730;9.336;2022-12-10T10:20:10;25.42;;;18.65;;
5981;SDS011;3018;48.730;9.336;2022-12-10T10:22:37;28.65;;;19.75;;
5981;SDS011;3018;48.730;9.336;2022-12-10T10:25:05;26.20;;;19.48;;
5981;SDS011;3018;48.730;9.336;2022-12-10T10:27:32;27.38;;;19.00;;
5981;SDS011;3018;48.730;9.336;2022-12-10T10:30:00;27.13;;;19.13;;
5981;SDS011;3018;48.730;9.336;2022-12-10T10:32:27;27.88;;;19.00;;
5981;SDS011;3018;48.730;9.336;2022-12-10T10:35:19;27.02;;;19.38;;
5981;SDS011;3018;48.730;9.336;2022-12-10T10:37:47;26.77;;;19.13;;
5981;SDS011;3018;48.730;9.336;2022-12-10T10:40:22;24.35;;;18.15;;
5981;SDS011;3018;48.730;9.336;2022-12-10T10:42:51;24.90;;;18.00;;
5981;SDS011;3018;48.730;9.336;2022-12-10T10:45:32;24.05;;;17.83;;
5981;SDS011;3018;48.730;9.336;2022-12-10T10:48:03;23.88;;;18.20;;
5981;SDS011;3018;48.730;9.336;2022-12-10T10:50:29;25.45;;;17.75;;
5981;SDS011;3018;48.730;9.336;2022-12-10T10:52:56;30.15;;;18.77;;
5981;SDS011;3018;48.730;9.336;2022-12-10T10:55:31;28.70;;;19.38;;
5981;SDS011;3018;48.730;9.336;2022-12-10T10:57:59;25.92;;;17.92;;
5981;SDS011;3018;48.730;9.336;2022-12-10T11:00:26;28.95;;;18.98;;
5981;SDS011;3018;48.730;9.336;2022-12-10T11:02:52;27.55;;;19.05;;
5981;SDS011;3018;48.730;9.336;2022-12-10T11:05:20;27.80;;;19.55;;
5981;SDS011;3018;48.730;9.336;2022-12-10T11:07:49;27.15;;;19.20;;
5981;SDS011;3018;48.730;9.336;2022-12-10T11:10:23;26.10;;;18.70;;
5981;SDS011;3018;48.730;9.336;2022-12-10T11:12:55;26.00;;;18.23;;
5981;SDS011;3018;48.730;9.336;2022-12-10T11:15:28;27.38;;;19.17;;
5981;SDS011;3018;48.730;9.336;2022-12-10T11:17:55;31.08;;;20.90;;
5981;SDS011;3018;48.730;9.336;2022-12-10T11:20:23;29.80;;;21.00;;
5981;SDS011;3018;48.730;9.336;2022-12-10T11:22:50;29.40;;;20.73;;
5981;SDS011;3018;48.730;9.336;2022-12-10T11:25:16;31.55;;;21.08;;
5981;SDS011;3018;48.730;9.336;2022-12-10T11:27:46;31.15;;;19.85;;
5981;SDS011;3018;48.730;9.336;2022-12-10T11:30:17;34.38;;;20.92;;
5981;SDS011;3018;48.730;9.336;2022-12-10T11:32:58;27.85;;;20.30;;
5981;SDS011;3018;48.730;9.336;2022-12-10T11:35:27;30.30;;;21.05;;
5981;SDS011;3018;48.730;9.336;2022-12-10T11:37:58;26.27;;;19.60;;
5981;SDS011;3018;48.730;9.336;2022-12-10T11:40:36;29.90;;;20.80;;
5981;SDS011;3018;48.730;9.336;2022-12-10T11:43:13;29.20;;;20.48;;
5981;SDS011;3018;48.730;9.336;2022-12-10T11:45:46;30.63;;;21.23;;
5981;SDS011;3018;48.730;9.336;2022-12-10T11:48:17;29.75;;;20.95;;
5981;SDS011;3018;48.730;9.336;2022-12-10T11:50:45;30.63;;;21.63;;
5981;SDS011;3018;48.730;9.336;2022-12-10T11:53:23;29.30;;;19.27;;
5981;SDS011;3018;48.730;9.336;2022-12-10T11:55:54;30.10;;;20.30;;
5981;SDS011;3018;48.730;9.336;2022-12-10T11:58:28;26.83;;;19.15;;
5981;SDS011;3018;48.730;9.336;2022-12-10T12:01:01;26.55;;;18.48;;
5981;SDS011;3018;48.730;9.336;2022-12-10T12:03:44;28.05;;;19.15;;
5981;SDS011;3018;48.730;9.336;2022-12-10T12:06:22;26.50;;;19.10;;
5981;SDS011;3018;48.730;9.336;2022-12-10T12:08:51;31.00;;;20.70;;
5981;SDS011;3018;48.730;9.336;2022-12-10T12:11:27;25.63;;;18.83;;
5981;SDS011;3018;48.730;9.336;2022-12-10T12:13:57;27.92;;;19.33;;
5981;SDS011;3018;48.730;9.336;2022-12-10T12:16:26;27.90;;;19.10;;
5981;SDS011;3018;48.730;9.336;2022-12-10T12:18:54;29.33;;;20.15;;
5981;SDS011;3018;48.730;9.336;2022-12-10T12:21:21;25.38;;;18.80;;
5981;SDS011;3018;48.730;9.336;2022-12-10T12:23:49;26.65;;;18.77;;
5981;SDS011;3018;48.730;9.336;2022-12-10T12:26:18;25.45;;;19.10;;
5981;SDS011;3018;48.730;9.336;2022-12-10T12:28:46;29.13;;;20.05;;
5981;SDS011;3018;48.730;9.336;2022-12-10T12:31:14;26.88;;;19.15;;
5981;SDS011;3018;48.730;9.336;2022-12-10T12:33:45;25.60;;;18.58;;
5981;SDS011;3018;48.730;9.336;2022-12-10T12:36:14;23.10;;;17.33;;
5981;SDS011;3018;48.730;9.336;2022-12-10T12:38:43;24.83;;;17.42;;
5981;SDS011;3018;48.730;9.336;2022-12-10T12:41:13;25.23;;;17.42;;
5981;SDS011;3018;48.730;9.336;2022-12-10T12:43:42;22.90;;;17.60;;
5981;SDS011;3018;48.730;9.336;2022-12-10T12:46:12;24.23;;;17.02;;
5981;SDS011;3018;48.730;9.336;2022-12-10T12:48:42;21.55;;;16.67;;
5981;SDS011;3018;48.730;9.336;2022-12-10T12:51:14;23.20;;;16.80;;
5981;SDS011;3018;48.730;9.336;2022-12-10T12:53:43;22.73;;;17.17;;
5981;SDS011;3018;48.730;9.336;2022-12-10T12:56:10;22.10;;;16.73;;
5981;SDS011;3018;48.730;9.336;2022-12-10T12:58:41;23.30;;;16.90;;
5981;SDS011;3018;48.730;9.336;2022-12-10T13:01:23;24.45;;;16.48;;
5981;SDS011;3018;48.730;9.336;2022-12-10T13:03:52;22.90;;;16.80;;
5981;SDS011;3018;48.730;9.336;2022-12-10T13:06:22;28.00;;;17.20;;
5981;SDS011;3018;48.730;9.336;2022-12-10T13:08:50;23.73;;;17.05;;
5981;SDS011;3018;48.730;9.336;2022-12-10T13:11:19;22.45;;;16.98;;
5981;SDS011;3018;48.730;9.336;2022-12-10T13:14:14;23.08;;;16.95;;
5981;SDS011;3018;48.730;9.336;2022-12-10T13:16:46;25.77;;;16.70;;
5981;SDS011;3018;48.730;9.336;2022-12-10T13:19:16;22.92;;;16.13;;
5981;SDS011;3018;48.730;9.336;2022-12-10T13:21:58;24.35;;;17.55;;
5981;SDS011;3018;48.730;9.336;2022-12-10T13:27:14;22.38;;;15.95;;
5981;SDS011;3018;48.730;9.336;2022-12-10T13:29:45;22.90;;;16.77;;
5981;SDS011;3018;48.730;9.336;2022-12-10T13:32:15;22.45;;;16.88;;
5981;SDS011;3018;48.730;9.336;2022-12-10T13:34:42;24.75;;;16.17;;
5981;SDS011;3018;48.730;9.336;2022-12-10T13:37:17;24.92;;;17.60;;
5981;SDS011;3018;48.730;9.336;2022-12-10T13:39:46;22.15;;;16.58;;
5981;SDS011;3018;48.730;9.336;2022-12-10T13:42:22;23.52;;;17.05;;
5981;SDS011;3018;48.730;9.336;2022-12-10T13:45:23;21.77;;;16.30;;
5981;SDS011;3018;48.730;9.336;2022-12-10T13:47:50;23.10;;;16.60;;
5981;SDS011;3018;48.730;9.336;2022-12-10T13:50:18;24.05;;;17.40;;
5981;SDS011;3018;48.730;9.336;2022-12-10T13:52:49;23.90;;;17.00;;
5981;SDS011;3018;48.730;9.336;2022-12-10T13:55:22;24.77;;;17.25;;
5981;SDS011;3018;48.730;9.336;2022-12-10T13:58:05;28.33;;;19.25;;
5981;SDS011;3018;48.730;9.336;2022-12-10T14:00:36;23.05;;;17.67;;
5981;SDS011;3018;48.730;9.336;2022-12-10T14:06:03;26.17;;;17.40;;
5981;SDS011;3018;48.730;9.336;2022-12-10T14:08:35;25.77;;;17.15;;
5981;SDS011;3018;48.730;9.336;2022-12-10T14:11:04;26.08;;;17.40;;
5981;SDS011;3018;48.730;9.336;2022-12-10T14:13:32;23.80;;;17.88;;
5981;SDS011;3018;48.730;9.336;2022-12-10T14:16:00;28.17;;;18.95;;
5981;SDS011;3018;48.730;9.336;2022-12-10T14:18:27;25.40;;;17.92;;
5981;SDS011;3018;48.730;9.336;2022-12-10T14:20:55;25.92;;;18.63;;
5981;SDS011;3018;48.730;9.336;2022-12-10T14:23:25;24.58;;;17.98;;
5981;SDS011;3018;48.730;9.336;2022-12-10T14:26:05;24.33;;;18.00;;
5981;SDS011;3018;48.730;9.336;2022-12-10T14:28:32;24.48;;;18.27;;
5981;SDS011;3018;48.730;9.336;2022-12-10T14:30:59;25.75;;;17.88;;
5981;SDS011;3018;48.730;9.336;2022-12-10T14:33:25;25.20;;;18.10;;
5981;SDS011;3018;48.730;9.336;2022-12-10T14:35:52;25.17;;;18.27;;
5981;SDS011;3018;48.730;9.336;2022-12-10T14:38:19;27.80;;;19.30;;
5981;SDS011;3018;48.730;9.336;2022-12-10T14:40:46;28.00;;;19.65;;
5981;SDS011;3018;48.730;9.336;2022-12-10T14:43:15;27.52;;;19.27;;
5981;SDS011;3018;48.730;9.336;2022-12-10T14:45:44;28.40;;;19.52;;
5981;SDS011;3018;48.730;9.336;2022-12-10T14:48:14;27.90;;;20.02;;
5981;SDS011;3018;48.730;9.336;2022-12-10T14:50:41;30.73;;;20.52;;
5981;SDS011;3018;48.730;9.336;2022-12-10T14:53:11;30.85;;;21.60;;
5981;SDS011;3018;48.730;9.336;2022-12-10T14:55:39;28.85;;;21.17;;
5981;SDS011;3018;48.730;9.336;2022-12-10T14:58:05;29.92;;;20.67;;
5981;SDS011;3018;48.730;9.336;2022-12-10T15:00:34;30.52;;;20.70;;
5981;SDS011;3018;48.730;9.336;2022-12-10T15:03:06;33.35;;;21.92;;